Den Burg, Netherlands

7:59 PM CET on January 20, 2017 (GMT +0100)
Weerstation Botter | | Change Station

Elev 0 ft 53.06 °N, 4.80 °E | Updated 9 minutes ago

Overcast
Overcast
33.6 °F
Feels Like 34 °F
N
1.0
Wind Variable Wind from East
Gusts 3.0 mph

Today
High -- | Low -- °F
--% Chance of Precip.
Yesterday
High -- | Low -- °F
Precip. -- in
Pressure 30.54 in
Visibility 6.2 miles
Clouds Mostly Cloudy 1800 ft
Mostly Cloudy 12000 ft
Windchill 34 °F
Dew Point 30 °F
Humidity 88%
Rainfall 0.00 in
Snow Depth Not available.
8:41 AM 5:03 PM
Last Quarter, 42% visible
METAR EHKD 201855Z AUTO 06001KT 9999 BKN018 BKN120 M01/M03 Q1034 WHT 03003KT 9999 BKN016
Pressure 30.54 in
Visibility 6.2 miles
Clouds Mostly Cloudy 1800 ft
Mostly Cloudy 12000 ft
Windchill 34 °F
Dew Point 30 °F
Humidity 88%
Rainfall 0.00 in
Snow Depth Not available.
8:41 AM 5:03 PM
Last Quarter, 42% visible
METAR EHKD 201855Z AUTO 06001KT 9999 BKN018 BKN120 M01/M03 Q1034 WHT 03003KT 9999 BKN016

Get Your Daily Forecast Email!

Thanks for signing up!

Be on the lookout for a verification email in your inbox.

You'll start receiving the daily forecast at 8 AM.

×

10-Day Weather Forecast

×

Almanac

Astronomy

Jan. 20, 2017 Rise Set
Actual Time
Civil Twilight
Nautical Twilight
Astronomical Twilight
Moon
Length of Visible Light
Length of Day
Tomorrow will be .
, % of the Moon is Illuminated

Today's Extremes

Country Highs Country Lows

Community

WunderPhotos

Upload Photos

1,962,540 photos uploaded!

WunderBlog® & News

Nearby

Air Quality

  Air Quality AQ Index Pollutant
Not available.

Snow Depth

Station Depth Elevation

Earthquake Activity

City Distance Mag. Time & Date
Minimum magnitude displayed is 2.5.

Coastal Water Temperatures

Place Temperature

Stations

Nearby Weather Stations

Station Location Temp. Windchill Dew Point Humidity Wind Precip. Elev Updated Type